createdAt,value
2018-09-28T00:01:44.440Z,12.30
2018-09-28T00:04:13.136Z,12.30
2018-09-28T00:06:41.652Z,12.30
2018-09-28T00:09:11.018Z,12.20
2018-09-28T00:11:39.524Z,12.20
2018-09-28T00:14:08.391Z,12.20
2018-09-28T00:16:36.891Z,12.10
2018-09-28T00:19:06.190Z,12.10
2018-09-28T00:21:34.776Z,12.10
2018-09-28T00:24:03.334Z,12.00
2018-09-28T00:26:32.176Z,12.00
2018-09-28T00:29:00.967Z,12.00
2018-09-28T00:31:29.741Z,12.00
2018-09-28T00:33:58.542Z,11.90
2018-09-28T00:36:27.110Z,11.90
2018-09-28T00:38:55.676Z,11.90
2018-09-28T00:41:24.206Z,11.90
2018-09-28T00:43:52.804Z,11.90
2018-09-28T00:46:21.331Z,11.80
2018-09-28T00:48:49.867Z,11.80
2018-09-28T00:51:18.408Z,11.70
2018-09-28T00:53:47.104Z,11.60
2018-09-28T00:56:15.636Z,11.60
2018-09-28T00:58:50.445Z,11.60
2018-09-28T01:01:18.957Z,11.60
2018-09-28T01:03:47.746Z,11.60
2018-09-28T01:06:16.417Z,11.60
2018-09-28T01:08:45.011Z,11.60
2018-09-28T01:11:13.519Z,11.60
2018-09-28T01:13:42.265Z,11.50
2018-09-28T01:16:10.859Z,11.50
2018-09-28T01:18:39.861Z,11.50
2018-09-28T01:21:08.608Z,11.50
2018-09-28T01:23:37.139Z,11.50
2018-09-28T01:26:05.647Z,11.60
2018-09-28T01:28:34.368Z,11.50
2018-09-28T01:31:02.980Z,11.50
2018-09-28T01:33:31.638Z,11.40
2018-09-28T01:36:00.191Z,11.30
2018-09-28T01:38:28.943Z,11.30
2018-09-28T01:40:57.803Z,11.20
2018-09-28T01:43:26.543Z,11.20
2018-09-28T01:45:55.411Z,11.20
2018-09-28T01:48:24.203Z,11.20
2018-09-28T01:50:52.971Z,11.20
2018-09-28T01:53:21.812Z,11.20
2018-09-28T01:55:50.357Z,11.10
2018-09-28T01:58:18.861Z,11.10
2018-09-28T02:00:47.409Z,11.10
2018-09-28T02:03:15.937Z,11.10
2018-09-28T02:05:44.504Z,11.00
2018-09-28T02:08:13.005Z,11.00
2018-09-28T02:10:41.540Z,11.00
2018-09-28T02:13:10.029Z,11.00
2018-09-28T02:15:38.583Z,10.90
2018-09-28T02:18:07.501Z,10.90
2018-09-28T02:20:36.040Z,10.90
2018-09-28T02:23:04.786Z,10.90
2018-09-28T02:25:33.487Z,10.90
2018-09-28T02:28:01.991Z,10.80
2018-09-28T02:30:30.520Z,10.80
2018-09-28T02:32:59.043Z,10.70
2018-09-28T02:35:27.556Z,10.70
2018-09-28T02:37:56.317Z,10.70
2018-09-28T02:40:24.869Z,10.70
2018-09-28T02:42:53.367Z,10.70
2018-09-28T02:45:21.884Z,10.70
2018-09-28T02:47:50.493Z,10.70
2018-09-28T02:50:19.091Z,10.60
2018-09-28T02:52:47.762Z,10.70
2018-09-28T02:55:16.511Z,10.70
2018-09-28T02:57:45.367Z,10.70
2018-09-28T03:00:13.908Z,10.70
2018-09-28T03:02:42.693Z,10.60
2018-09-28T03:05:11.259Z,10.60
2018-09-28T03:07:40.097Z,10.50
2018-09-28T03:10:08.914Z,10.50
2018-09-28T03:12:37.688Z,10.50
2018-09-28T03:15:06.507Z,10.40
2018-09-28T03:17:35.008Z,10.40
2018-09-28T03:20:03.876Z,10.40
2018-09-28T03:22:32.541Z,10.40
2018-09-28T03:25:01.056Z,10.30
2018-09-28T03:27:29.545Z,10.30
2018-09-28T03:29:58.195Z,10.40
2018-09-28T03:32:26.749Z,10.30
2018-09-28T03:34:55.434Z,10.30
2018-09-28T03:37:23.942Z,10.30
2018-09-28T03:39:52.452Z,10.30
2018-09-28T03:42:21.009Z,10.20
2018-09-28T03:44:49.515Z,10.20
2018-09-28T03:47:18.297Z,10.20
2018-09-28T03:49:46.821Z,10.10
2018-09-28T03:52:15.393Z,10.20
2018-09-28T03:54:43.903Z,10.20
2018-09-28T03:57:12.700Z,10.10
2018-09-28T03:59:41.420Z,10.10
2018-09-28T04:02:09.976Z,10.10
2018-09-28T04:04:38.499Z,10.10
2018-09-28T04:07:07.059Z,10.00
2018-09-28T04:09:36.421Z,9.90
2018-09-28T04:12:04.972Z,10.00
2018-09-28T04:14:33.651Z,10.00
2018-09-28T04:17:02.261Z,10.00
2018-09-28T04:19:30.780Z,9.90
2018-09-28T04:22:00.527Z,9.90
2018-09-28T04:24:30.185Z,9.90
2018-09-28T04:26:58.792Z,9.90
2018-09-28T04:29:27.355Z,9.90
2018-09-28T04:31:55.921Z,9.90
2018-09-28T04:34:24.477Z,9.90
2018-09-28T04:36:53.022Z,9.90
2018-09-28T04:39:22.003Z,9.90
2018-09-28T04:41:50.544Z,9.80
2018-09-28T04:44:19.037Z,9.80
2018-09-28T04:46:47.555Z,9.80
2018-09-28T04:49:16.267Z,9.90
2018-09-28T04:51:44.792Z,9.90
2018-09-28T04:54:13.284Z,9.80
2018-09-28T04:56:41.800Z,9.80
2018-09-28T04:59:10.516Z,9.80
2018-09-28T05:01:39.079Z,9.70
2018-09-28T05:04:07.702Z,9.70
2018-09-28T05:06:36.232Z,9.70
2018-09-28T05:09:08.228Z,9.70
2018-09-28T05:11:36.759Z,9.70
2018-09-28T05:14:05.252Z,9.70
2018-09-28T05:16:33.991Z,9.70
2018-09-28T05:19:03.023Z,9.70
2018-09-28T05:21:31.764Z,9.60
2018-09-28T05:24:00.606Z,9.60
2018-09-28T05:26:29.112Z,9.60
2018-09-28T05:28:57.894Z,9.60
2018-09-28T05:31:26.741Z,9.60
2018-09-28T05:33:55.352Z,9.60
2018-09-28T05:36:24.510Z,9.60
2018-09-28T05:38:53.160Z,9.60
2018-09-28T05:41:22.084Z,9.60
2018-09-28T05:43:50.649Z,9.60
2018-09-28T05:46:19.433Z,9.60
2018-09-28T05:48:48.053Z,9.70
2018-09-28T05:51:16.595Z,9.60
2018-09-28T05:53:45.221Z,9.60
2018-09-28T05:56:13.774Z,9.60
2018-09-28T05:58:47.544Z,9.60
2018-09-28T06:01:21.361Z,9.60
2018-09-28T06:03:55.375Z,9.60
2018-09-28T06:06:23.875Z,9.50
2018-09-28T06:08:52.383Z,9.50
2018-09-28T06:11:20.877Z,9.60
2018-09-28T06:13:49.393Z,9.60
2018-09-28T06:16:17.900Z,9.60
2018-09-28T06:18:46.561Z,9.60
2018-09-28T06:21:15.207Z,9.60
2018-09-28T06:23:43.724Z,9.60
2018-09-28T06:26:12.211Z,9.60
2018-09-28T06:28:40.740Z,9.60
2018-09-28T06:31:09.236Z,9.70
2018-09-28T06:33:37.784Z,9.70
2018-09-28T06:36:06.498Z,9.70
2018-09-28T06:38:35.064Z,9.70
2018-09-28T06:41:03.735Z,9.70
2018-09-28T06:43:32.424Z,9.80
2018-09-28T06:46:00.932Z,9.80
2018-09-28T06:48:29.512Z,9.80
2018-09-28T06:50:58.035Z,9.80
2018-09-28T06:53:26.577Z,9.70
2018-09-28T06:55:55.098Z,9.80
2018-09-28T06:58:23.651Z,9.90
2018-09-28T07:00:52.169Z,9.90
2018-09-28T07:03:20.724Z,9.90
2018-09-28T07:05:49.431Z,10.00
2018-09-28T07:08:17.999Z,10.00
2018-09-28T07:10:46.609Z,10.10
2018-09-28T07:13:15.213Z,10.10
2018-09-28T07:15:43.724Z,10.10
2018-09-28T07:18:12.319Z,10.20
2018-09-28T07:20:40.814Z,10.30
2018-09-28T07:23:09.360Z,10.30
2018-09-28T07:25:37.928Z,10.40
2018-09-28T07:28:06.537Z,10.40
2018-09-28T07:30:35.084Z,10.50
2018-09-28T07:33:03.629Z,10.50
2018-09-28T07:35:32.204Z,10.50
2018-09-28T07:38:00.713Z,10.50
2018-09-28T07:40:29.279Z,10.60
2018-09-28T07:42:57.800Z,10.60
2018-09-28T07:45:26.375Z,10.60
2018-09-28T07:47:54.924Z,10.60
2018-09-28T07:50:23.491Z,10.60
2018-09-28T07:52:52.011Z,10.70
2018-09-28T07:55:20.564Z,10.80
2018-09-28T07:57:49.084Z,10.90
2018-09-28T08:00:17.634Z,11.00
2018-09-28T08:02:46.149Z,11.00
2018-09-28T08:05:14.712Z,11.10
2018-09-28T08:07:43.223Z,11.20
2018-09-28T08:10:11.808Z,11.30
2018-09-28T08:12:40.327Z,11.40
2018-09-28T08:15:08.908Z,11.50
2018-09-28T08:17:37.423Z,11.60
2018-09-28T08:20:06.125Z,11.70
2018-09-28T08:22:34.648Z,11.80
2018-09-28T08:25:03.675Z,11.90
2018-09-28T08:27:32.175Z,12.00
2018-09-28T08:30:00.746Z,12.10
2018-09-28T08:32:29.237Z,12.20
2018-09-28T08:34:57.780Z,12.30
2018-09-28T08:37:26.259Z,12.40
2018-09-28T08:39:54.821Z,12.50
2018-09-28T08:42:23.371Z,12.60
2018-09-28T08:44:51.892Z,12.70
2018-09-28T08:47:20.382Z,12.80
2018-09-28T08:49:48.905Z,12.90
2018-09-28T08:52:17.405Z,13.00
2018-09-28T08:54:45.961Z,13.10
2018-09-28T08:57:14.460Z,13.20
2018-09-28T08:59:43.089Z,13.20
2018-09-28T09:02:11.663Z,13.30
2018-09-28T09:04:40.176Z,13.40
2018-09-28T09:07:08.707Z,13.50
2018-09-28T09:09:37.252Z,13.60
2018-09-28T09:12:05.761Z,13.70
2018-09-28T09:14:34.285Z,13.80
2018-09-28T09:17:02.883Z,14.00
2018-09-28T09:19:31.465Z,14.10
2018-09-28T09:22:00.009Z,14.20
2018-09-28T09:24:28.627Z,14.30
2018-09-28T09:26:57.242Z,14.40
2018-09-28T09:29:25.732Z,14.50
2018-09-28T09:31:54.248Z,14.60
2018-09-28T09:34:22.780Z,14.70
2018-09-28T09:36:51.324Z,14.80
2018-09-28T09:39:19.956Z,14.90
2018-09-28T09:41:48.529Z,15.10
2018-09-28T09:44:17.029Z,15.10
2018-09-28T09:46:45.606Z,15.30
2018-09-28T09:49:14.096Z,15.40
2018-09-28T09:51:42.623Z,15.50
2018-09-28T09:54:11.252Z,15.60
2018-09-28T09:56:39.808Z,15.70
2018-09-28T09:59:08.341Z,15.80
2018-09-28T10:01:42.282Z,15.90
2018-09-28T10:04:11.374Z,16.10
2018-09-28T10:06:39.941Z,16.10
2018-09-28T10:09:11.527Z,16.20
2018-09-28T10:11:40.316Z,16.30
2018-09-28T10:14:08.911Z,16.40
2018-09-28T10:16:37.455Z,16.50
2018-09-28T10:19:06.355Z,16.60
2018-09-28T10:21:34.927Z,16.70
2018-09-28T10:24:03.466Z,16.80
2018-09-28T10:26:32.040Z,16.90
2018-09-28T10:29:00.552Z,17.00
2018-09-28T10:31:29.095Z,17.10
2018-09-28T10:33:57.624Z,17.20
2018-09-28T10:36:26.201Z,17.20
2018-09-28T10:38:54.736Z,17.30
2018-09-28T10:41:23.299Z,17.40
2018-09-28T10:43:52.093Z,17.40
2018-09-28T10:46:20.645Z,17.50
2018-09-28T10:48:49.161Z,17.60
2018-09-28T10:51:17.823Z,17.60
2018-09-28T10:53:46.288Z,17.70
2018-09-28T10:56:14.845Z,17.70
2018-09-28T10:58:43.418Z,17.90
2018-09-28T11:01:11.936Z,17.90
2018-09-28T11:03:40.492Z,18.00
2018-09-28T11:06:09.016Z,18.10
2018-09-28T11:08:37.545Z,18.20
2018-09-28T11:11:06.060Z,18.30
2018-09-28T11:13:34.552Z,18.40
2018-09-28T11:16:03.155Z,18.40
2018-09-28T11:18:31.652Z,18.50
2018-09-28T11:21:00.262Z,18.60
2018-09-28T11:23:28.745Z,18.60
2018-09-28T11:25:57.372Z,18.70
2018-09-28T11:28:25.905Z,18.70
2018-09-28T11:30:54.400Z,18.80
2018-09-28T11:33:22.966Z,18.90
2018-09-28T11:35:51.492Z,19.00
2018-09-28T11:38:20.349Z,19.10
2018-09-28T11:40:48.869Z,19.10
2018-09-28T11:43:17.478Z,19.20
2018-09-28T11:45:46.098Z,19.30
2018-09-28T11:48:14.595Z,19.40
2018-09-28T11:50:43.162Z,19.40
2018-09-28T11:53:11.721Z,19.50
2018-09-28T11:55:40.252Z,19.50
2018-09-28T11:58:08.812Z,19.60
2018-09-28T12:00:37.316Z,19.60
2018-09-28T12:03:05.913Z,19.60
2018-09-28T12:05:34.415Z,19.60
2018-09-28T12:08:02.953Z,19.40
2018-09-28T12:10:31.467Z,19.30
2018-09-28T12:13:00.008Z,19.30
2018-09-28T12:15:28.621Z,19.30
2018-09-28T12:17:57.591Z,19.30
2018-09-28T12:20:26.083Z,19.40
2018-09-28T12:22:54.704Z,19.50
2018-09-28T12:25:23.203Z,19.60
2018-09-28T12:27:51.996Z,19.60
2018-09-28T12:30:20.557Z,19.70
2018-09-28T12:32:49.120Z,19.70
2018-09-28T12:35:17.839Z,19.70
2018-09-28T12:37:46.647Z,19.80
2018-09-28T12:40:15.200Z,19.80
2018-09-28T12:42:44.765Z,19.90
2018-09-28T12:45:13.254Z,19.90
2018-09-28T12:47:42.117Z,19.90
2018-09-28T12:50:10.677Z,20.00
2018-09-28T12:52:39.207Z,20.10
2018-09-28T12:55:08.081Z,20.30
2018-09-28T12:57:36.760Z,20.40
2018-09-28T13:00:05.653Z,20.50
2018-09-28T13:02:34.350Z,20.70
2018-09-28T13:05:02.894Z,20.70
2018-09-28T13:07:31.796Z,20.80
2018-09-28T13:10:00.312Z,20.80
2018-09-28T13:12:29.311Z,20.60
2018-09-28T13:14:57.951Z,20.60
2018-09-28T13:17:26.507Z,20.60
2018-09-28T13:19:55.759Z,20.70
2018-09-28T13:22:24.294Z,20.80
2018-09-28T13:24:53.146Z,20.90
2018-09-28T13:27:21.669Z,20.90
2018-09-28T13:29:50.500Z,20.90
2018-09-28T13:32:19.088Z,20.70
2018-09-28T13:34:47.605Z,20.70
2018-09-28T13:37:16.127Z,20.70
2018-09-28T13:39:44.946Z,20.70
2018-09-28T13:42:13.500Z,20.70
2018-09-28T13:44:42.385Z,20.80
2018-09-28T13:47:10.869Z,20.60
2018-09-28T13:49:39.540Z,20.50
2018-09-28T13:52:08.097Z,20.40
2018-09-28T13:54:37.748Z,20.40
2018-09-28T13:57:06.243Z,20.50
2018-09-28T13:59:34.893Z,20.60
2018-09-28T14:02:03.523Z,20.50
2018-09-28T14:04:32.169Z,20.40
2018-09-28T14:07:00.771Z,20.40
2018-09-28T14:09:29.550Z,20.40
2018-09-28T14:11:58.043Z,20.50
2018-09-28T14:14:26.832Z,20.40
2018-09-28T14:16:55.281Z,20.40
2018-09-28T14:19:24.120Z,20.30
2018-09-28T14:21:52.634Z,20.20
2018-09-28T14:24:21.334Z,20.00
2018-09-28T14:26:49.904Z,19.90
2018-09-28T14:29:19.484Z,19.70
2018-09-28T14:31:48.025Z,19.50
2018-09-28T14:34:16.623Z,19.40
2018-09-28T14:36:45.416Z,19.40
2018-09-28T14:39:14.331Z,19.40
2018-09-28T14:41:42.877Z,19.40
2018-09-28T14:44:11.821Z,19.30
2018-09-28T14:46:40.465Z,19.20
2018-09-28T14:49:09.300Z,19.10
2018-09-28T14:51:37.848Z,19.00
2018-09-28T14:54:06.674Z,18.90
2018-09-28T14:56:35.246Z,18.80
2018-09-28T14:59:04.238Z,18.70
2018-09-28T15:01:32.887Z,18.60
2018-09-28T15:04:01.465Z,18.40
2018-09-28T15:06:30.029Z,18.10
2018-09-28T15:08:58.744Z,18.00
2018-09-28T15:11:27.256Z,17.90
2018-09-28T15:13:55.800Z,17.90
2018-09-28T15:16:24.606Z,17.80
2018-09-28T15:18:53.098Z,17.80
2018-09-28T15:21:21.927Z,17.60
2018-09-28T15:23:50.447Z,17.40
2018-09-28T15:26:19.116Z,17.40
2018-09-28T15:28:47.643Z,17.20
2018-09-28T15:31:16.208Z,17.10
2018-09-28T15:33:44.776Z,17.10
2018-09-28T15:36:13.604Z,17.00
2018-09-28T15:38:42.104Z,16.80
2018-09-28T15:41:10.689Z,16.80
2018-09-28T15:43:39.548Z,16.70
2018-09-28T15:46:08.129Z,16.60
2018-09-28T15:48:36.944Z,16.50
2018-09-28T15:51:05.584Z,16.40
2018-09-28T15:53:34.099Z,16.30
2018-09-28T15:56:02.656Z,16.20
2018-09-28T15:58:31.155Z,16.10
2018-09-28T16:00:59.712Z,15.90
2018-09-28T16:03:28.238Z,15.80
2018-09-28T16:05:56.943Z,15.80
2018-09-28T16:08:25.503Z,15.60
2018-09-28T16:10:54.085Z,15.50
2018-09-28T16:13:22.592Z,15.40
2018-09-28T16:15:51.261Z,15.30
2018-09-28T16:18:19.800Z,15.20
2018-09-28T16:20:48.349Z,15.10
2018-09-28T16:23:16.847Z,15.00
2018-09-28T16:25:45.415Z,14.90
2018-09-28T16:28:13.944Z,14.80
2018-09-28T16:30:42.559Z,14.80
2018-09-28T16:33:11.073Z,14.80
2018-09-28T16:35:39.707Z,14.70
2018-09-28T16:38:08.195Z,14.60
2018-09-28T16:40:36.981Z,14.60
2018-09-28T16:43:05.540Z,14.60
2018-09-28T16:45:34.155Z,14.60
2018-09-28T16:48:02.681Z,14.50
2018-09-28T16:50:31.365Z,14.40
2018-09-28T16:52:59.891Z,14.40
2018-09-28T16:55:28.548Z,14.40
2018-09-28T16:57:57.132Z,14.40
2018-09-28T17:00:25.965Z,14.40
2018-09-28T17:02:54.477Z,14.40
2018-09-28T17:05:23.340Z,14.40
2018-09-28T17:07:52.144Z,14.30
2018-09-28T17:10:20.656Z,14.30
2018-09-28T17:12:49.605Z,14.30
2018-09-28T17:15:18.150Z,14.30
2018-09-28T17:17:46.979Z,14.20
2018-09-28T17:20:15.501Z,14.20
2018-09-28T17:22:44.381Z,14.10
2018-09-28T17:25:12.977Z,14.00
2018-09-28T17:27:41.919Z,14.10
2018-09-28T17:30:10.436Z,14.10
2018-09-28T17:32:39.189Z,14.10
2018-09-28T17:35:07.773Z,14.10
2018-09-28T17:37:36.600Z,14.10
2018-09-28T17:40:05.223Z,14.00
2018-09-28T17:42:34.037Z,14.00
2018-09-28T17:45:02.597Z,13.90
2018-09-28T17:47:31.514Z,13.90
2018-09-28T17:50:00.052Z,13.80
2018-09-28T17:52:29.016Z,13.80
2018-09-28T17:54:57.552Z,13.90
2018-09-28T17:57:26.461Z,13.90
2018-09-28T17:59:54.993Z,13.90
2018-09-28T18:02:24.352Z,13.90
2018-09-28T18:04:52.872Z,13.90
2018-09-28T18:07:22.233Z,13.90
2018-09-28T18:09:50.731Z,13.90
2018-09-28T18:12:19.708Z,14.00
2018-09-28T18:14:48.216Z,14.00
2018-09-28T18:17:17.692Z,13.90
2018-09-28T18:19:46.212Z,13.90
2018-09-28T18:22:15.718Z,14.00
2018-09-28T18:24:44.231Z,13.90
2018-09-28T18:27:13.314Z,14.00
2018-09-28T18:29:41.792Z,13.90
2018-09-28T18:32:10.944Z,13.90
2018-09-28T18:34:39.445Z,13.90
2018-09-28T18:37:08.448Z,13.90
2018-09-28T18:39:36.951Z,13.90
2018-09-28T18:42:06.020Z,14.00
2018-09-28T18:44:34.536Z,14.00
2018-09-28T18:47:03.061Z,14.00
2018-09-28T18:49:32.047Z,13.90
2018-09-28T18:52:00.568Z,13.90
2018-09-28T18:54:29.638Z,13.90
2018-09-28T18:56:58.140Z,14.00
2018-09-28T18:59:27.127Z,13.90
2018-09-28T19:01:55.642Z,14.00
2018-09-28T19:04:24.683Z,14.00
2018-09-28T19:06:53.208Z,14.00
2018-09-28T19:09:22.575Z,14.00
2018-09-28T19:11:51.088Z,14.00
2018-09-28T19:14:19.942Z,14.00
2018-09-28T19:16:48.489Z,14.00
2018-09-28T19:19:17.525Z,13.90
2018-09-28T19:21:46.093Z,13.90
2018-09-28T19:24:14.988Z,13.80
2018-09-28T19:26:43.505Z,13.80
2018-09-28T19:29:13.079Z,13.80
2018-09-28T19:31:41.616Z,13.80
2018-09-28T19:34:11.890Z,13.70
2018-09-28T19:36:40.409Z,13.60
2018-09-28T19:39:10.505Z,13.60
2018-09-28T19:41:39.988Z,13.50
2018-09-28T19:44:09.198Z,13.50
2018-09-28T19:46:37.719Z,13.50
2018-09-28T19:49:06.772Z,13.40
2018-09-28T19:51:35.325Z,13.40
2018-09-28T19:54:04.053Z,13.40
2018-09-28T19:56:32.568Z,13.40
2018-09-28T19:59:01.309Z,13.40
2018-09-28T20:01:29.852Z,13.40
2018-09-28T20:03:58.437Z,13.40
2018-09-28T20:06:26.961Z,13.40
2018-09-28T20:08:55.620Z,13.30
2018-09-28T20:11:24.139Z,13.30
2018-09-28T20:13:53.429Z,13.20
2018-09-28T20:16:21.941Z,13.20
2018-09-28T20:18:50.903Z,13.30
2018-09-28T20:21:19.417Z,13.30
2018-09-28T20:23:48.380Z,13.40
2018-09-28T20:26:16.891Z,13.40
2018-09-28T20:28:45.680Z,13.40
2018-09-28T20:31:14.192Z,13.40
2018-09-28T20:33:42.784Z,13.40
2018-09-28T20:36:11.292Z,13.40
2018-09-28T20:38:39.804Z,13.40
2018-09-28T20:41:08.368Z,13.40
2018-09-28T20:43:36.885Z,13.40
2018-09-28T20:46:05.512Z,13.40
2018-09-28T20:48:34.013Z,13.40
2018-09-28T20:51:02.610Z,13.40
2018-09-28T20:53:31.128Z,13.40
2018-09-28T20:55:59.735Z,13.40
2018-09-28T20:58:28.241Z,13.40
2018-09-28T21:00:56.887Z,13.40
2018-09-28T21:03:25.364Z,13.30
2018-09-28T21:05:53.952Z,13.30
2018-09-28T21:08:22.480Z,13.40
2018-09-28T21:10:51.052Z,13.30
2018-09-28T21:13:19.620Z,13.30
2018-09-28T21:15:48.237Z,13.30
2018-09-28T21:18:16.741Z,13.20
2018-09-28T21:20:45.361Z,13.20
2018-09-28T21:23:13.857Z,13.10
2018-09-28T21:25:42.457Z,13.10
2018-09-28T21:28:10.959Z,13.10
2018-09-28T21:30:39.561Z,13.20
2018-09-28T21:33:08.068Z,13.10
2018-09-28T21:35:36.665Z,13.00
2018-09-28T21:38:05.212Z,13.10
2018-09-28T21:40:33.740Z,13.20
2018-09-28T21:43:02.250Z,13.30
2018-09-28T21:45:30.800Z,13.40
2018-09-28T21:47:59.305Z,13.40
2018-09-28T21:50:27.848Z,13.50
2018-09-28T21:52:56.343Z,13.50
2018-09-28T21:55:24.888Z,13.50
2018-09-28T21:57:53.379Z,13.40
2018-09-28T22:00:22.011Z,13.40
2018-09-28T22:02:50.508Z,13.50
2018-09-28T22:05:19.058Z,13.50
2018-09-28T22:07:47.637Z,13.50
2018-09-28T22:10:16.224Z,13.50
2018-09-28T22:12:44.740Z,13.50
2018-09-28T22:15:13.292Z,13.40
2018-09-28T22:17:41.806Z,13.40
2018-09-28T22:20:10.400Z,13.40
2018-09-28T22:22:38.930Z,13.30
2018-09-28T22:25:07.500Z,13.30
2018-09-28T22:27:36.052Z,13.30
2018-09-28T22:30:04.657Z,13.30
2018-09-28T22:32:33.233Z,13.20
2018-09-28T22:35:01.827Z,13.10
2018-09-28T22:37:30.369Z,13.10
2018-09-28T22:39:58.909Z,13.10
2018-09-28T22:42:27.457Z,13.10
2018-09-28T22:44:55.983Z,13.20
2018-09-28T22:47:24.532Z,13.20
2018-09-28T22:49:53.037Z,13.20
2018-09-28T22:52:21.571Z,13.20
2018-09-28T22:54:50.093Z,13.10
2018-09-28T22:57:18.643Z,13.10
2018-09-28T22:59:47.153Z,13.10
2018-09-28T23:02:15.716Z,13.10
2018-09-28T23:04:44.223Z,13.10
2018-09-28T23:07:12.794Z,13.10
2018-09-28T23:09:41.325Z,13.10
2018-09-28T23:12:09.905Z,13.00
2018-09-28T23:14:38.420Z,13.00
2018-09-28T23:17:07.213Z,12.90
2018-09-28T23:19:35.984Z,12.80
2018-09-28T23:22:04.612Z,12.80
2018-09-28T23:24:33.129Z,12.80
2018-09-28T23:27:01.657Z,12.70
2018-09-28T23:29:30.152Z,12.70
2018-09-28T23:31:58.692Z,12.60
2018-09-28T23:34:27.256Z,12.60
2018-09-28T23:36:55.779Z,12.60
2018-09-28T23:39:24.273Z,12.40
2018-09-28T23:41:52.810Z,12.40
2018-09-28T23:44:21.321Z,12.40
2018-09-28T23:46:49.848Z,12.40
2018-09-28T23:49:18.344Z,12.30
2018-09-28T23:51:46.872Z,12.30
2018-09-28T23:54:15.393Z,12.20
2018-09-28T23:56:43.972Z,12.10
2018-09-28T23:59:12.524Z,12.10
